sensor_id;sensor_type;location;lat;lon;timestamp;P1;durP1;ratioP1;P2;durP2;ratioP2
61200;SDS011;47065;52.898;6.992;2023-04-10T10:06:25;14.60;;;11.05;;
61200;SDS011;47065;52.898;6.992;2023-04-10T10:08:52;12.45;;;10.00;;
61200;SDS011;47065;52.898;6.992;2023-04-10T10:11:19;13.15;;;10.25;;
61200;SDS011;47065;52.898;6.992;2023-04-10T10:13:48;11.73;;;9.65;;
61200;SDS011;47065;52.898;6.992;2023-04-10T10:19:00;14.95;;;10.35;;
61200;SDS011;47065;52.898;6.992;2023-04-10T10:21:43;11.27;;;9.60;;
61200;SDS011;47065;52.898;6.992;2023-04-10T10:24:09;12.52;;;9.35;;
61200;SDS011;47065;52.898;6.992;2023-04-10T10:26:39;10.65;;;9.18;;
61200;SDS011;47065;52.898;6.992;2023-04-10T10:29:07;10.30;;;8.55;;
61200;SDS011;47065;52.898;6.992;2023-04-10T10:31:35;12.77;;;8.18;;
61200;SDS011;47065;52.898;6.992;2023-04-10T10:34:02;8.98;;;7.82;;
61200;SDS011;47065;52.898;6.992;2023-04-10T10:36:36;10.80;;;7.78;;
61200;SDS011;47065;52.898;6.992;2023-04-10T10:44:37;9.80;;;7.55;;
61200;SDS011;47065;52.898;6.992;2023-04-10T10:49:54;9.07;;;7.00;;
61200;SDS011;47065;52.898;6.992;2023-04-10T10:57:52;8.88;;;7.03;;
61200;SDS011;47065;52.898;6.992;2023-04-10T11:00:25;8.20;;;7.18;;
61200;SDS011;47065;52.898;6.992;2023-04-10T11:05:53;11.30;;;7.22;;
61200;SDS011;47065;52.898;6.992;2023-04-10T11:13:31;7.63;;;6.60;;
61200;SDS011;47065;52.898;6.992;2023-04-10T11:15:58;8.30;;;6.32;;
61200;SDS011;47065;52.898;6.992;2023-04-10T11:21:11;6.97;;;5.72;;
61200;SDS011;47065;52.898;6.992;2023-04-10T11:24:23;8.82;;;5.72;;
61200;SDS011;47065;52.898;6.992;2023-04-10T11:28:59;7.25;;;5.97;;
61200;SDS011;47065;52.898;6.992;2023-04-10T11:31:28;6.03;;;5.13;;
61200;SDS011;47065;52.898;6.992;2023-04-10T11:36:22;6.10;;;5.43;;
61200;SDS011;47065;52.898;6.992;2023-04-10T11:41:33;5.85;;;4.55;;
61200;SDS011;47065;52.898;6.992;2023-04-10T11:44:07;6.23;;;5.27;;
61200;SDS011;47065;52.898;6.992;2023-04-10T11:46:37;5.00;;;4.15;;
61200;SDS011;47065;52.898;6.992;2023-04-10T11:49:07;4.57;;;4.18;;
61200;SDS011;47065;52.898;6.992;2023-04-10T11:51:34;4.82;;;4.20;;
61200;SDS011;47065;52.898;6.992;2023-04-10T11:54:05;5.75;;;3.80;;
61200;SDS011;47065;52.898;6.992;2023-04-10T11:56:42;4.05;;;3.55;;
61200;SDS011;47065;52.898;6.992;2023-04-10T11:59:09;4.00;;;3.60;;
61200;SDS011;47065;52.898;6.992;2023-04-10T12:01:37;4.43;;;3.65;;
61200;SDS011;47065;52.898;6.992;2023-04-10T12:04:11;4.85;;;3.83;;
61200;SDS011;47065;52.898;6.992;2023-04-10T12:06:42;4.78;;;3.85;;
61200;SDS011;47065;52.898;6.992;2023-04-10T12:09:13;4.38;;;3.58;;
61200;SDS011;47065;52.898;6.992;2023-04-10T12:11:54;4.00;;;3.33;;
61200;SDS011;47065;52.898;6.992;2023-04-10T12:14:41;4.57;;;3.20;;
61200;SDS011;47065;52.898;6.992;2023-04-10T12:17:07;3.28;;;2.67;;
61200;SDS011;47065;52.898;6.992;2023-04-10T12:19:35;3.60;;;3.15;;
61200;SDS011;47065;52.898;6.992;2023-04-10T12:22:02;3.45;;;3.15;;
61200;SDS011;47065;52.898;6.992;2023-04-10T12:27:07;5.15;;;3.95;;
61200;SDS011;47065;52.898;6.992;2023-04-10T12:29:39;5.60;;;3.20;;
61200;SDS011;47065;52.898;6.992;2023-04-10T12:32:08;5.28;;;2.80;;
61200;SDS011;47065;52.898;6.992;2023-04-10T12:34:35;3.95;;;3.13;;
61200;SDS011;47065;52.898;6.992;2023-04-10T12:37:01;3.65;;;3.13;;
61200;SDS011;47065;52.898;6.992;2023-04-10T12:39:27;3.95;;;3.58;;
61200;SDS011;47065;52.898;6.992;2023-04-10T12:41:53;3.78;;;2.88;;
61200;SDS011;47065;52.898;6.992;2023-04-10T12:47:19;4.20;;;3.42;;
61200;SDS011;47065;52.898;6.992;2023-04-10T12:52:31;6.03;;;3.30;;
61200;SDS011;47065;52.898;6.992;2023-04-10T12:55:10;6.30;;;3.67;;
61200;SDS011;47065;52.898;6.992;2023-04-10T12:57:41;3.88;;;3.47;;
61200;SDS011;47065;52.898;6.992;2023-04-10T13:00:11;4.38;;;3.20;;
61200;SDS011;47065;52.898;6.992;2023-04-10T13:02:38;4.43;;;4.03;;
61200;SDS011;47065;52.898;6.992;2023-04-10T13:05:04;6.05;;;3.30;;
61200;SDS011;47065;52.898;6.992;2023-04-10T13:07:31;3.75;;;3.08;;
61200;SDS011;47065;52.898;6.992;2023-04-10T13:09:57;3.10;;;2.90;;
61200;SDS011;47065;52.898;6.992;2023-04-10T13:12:23;3.60;;;3.00;;
61200;SDS011;47065;52.898;6.992;2023-04-10T13:14:50;3.28;;;2.97;;
61200;SDS011;47065;52.898;6.992;2023-04-10T13:17:18;6.43;;;3.55;;
61200;SDS011;47065;52.898;6.992;2023-04-10T13:19:48;3.80;;;3.42;;
61200;SDS011;47065;52.898;6.992;2023-04-10T13:22:13;3.75;;;3.20;;
61200;SDS011;47065;52.898;6.992;2023-04-10T13:24:40;6.13;;;2.47;;
61200;SDS011;47065;52.898;6.992;2023-04-10T13:27:06;2.83;;;2.63;;
61200;SDS011;47065;52.898;6.992;2023-04-10T13:29:33;3.55;;;3.25;;
61200;SDS011;47065;52.898;6.992;2023-04-10T13:31:59;3.25;;;2.78;;
61200;SDS011;47065;52.898;6.992;2023-04-10T13:34:25;5.25;;;2.95;;
61200;SDS011;47065;52.898;6.992;2023-04-10T13:36:51;3.33;;;3.03;;
61200;SDS011;47065;52.898;6.992;2023-04-10T13:39:17;3.55;;;3.22;;
61200;SDS011;47065;52.898;6.992;2023-04-10T13:41:43;3.50;;;3.20;;
61200;SDS011;47065;52.898;6.992;2023-04-10T13:44:08;4.38;;;2.90;;
61200;SDS011;47065;52.898;6.992;2023-04-10T13:46:34;3.35;;;2.90;;
61200;SDS011;47065;52.898;6.992;2023-04-10T13:48:59;3.28;;;2.97;;
61200;SDS011;47065;52.898;6.992;2023-04-10T13:51:25;3.10;;;2.80;;
61200;SDS011;47065;52.898;6.992;2023-04-10T13:53:51;4.47;;;2.58;;
61200;SDS011;47065;52.898;6.992;2023-04-10T13:56:17;3.97;;;3.10;;
61200;SDS011;47065;52.898;6.992;2023-04-10T13:58:44;4.30;;;3.33;;
61200;SDS011;47065;52.898;6.992;2023-04-10T14:01:10;3.20;;;2.88;;
61200;SDS011;47065;52.898;6.992;2023-04-10T14:03:36;5.10;;;3.25;;
61200;SDS011;47065;52.898;6.992;2023-04-10T14:06:02;3.17;;;2.85;;
61200;SDS011;47065;52.898;6.992;2023-04-10T14:08:28;4.45;;;2.95;;
61200;SDS011;47065;52.898;6.992;2023-04-10T14:10:53;4.82;;;3.13;;
61200;SDS011;47065;52.898;6.992;2023-04-10T14:13:20;3.45;;;3.15;;
61200;SDS011;47065;52.898;6.992;2023-04-10T14:15:45;5.20;;;3.28;;
61200;SDS011;47065;52.898;6.992;2023-04-10T14:18:11;3.83;;;3.20;;
61200;SDS011;47065;52.898;6.992;2023-04-10T14:20:37;5.28;;;2.85;;
61200;SDS011;47065;52.898;6.992;2023-04-10T14:23:06;4.97;;;2.70;;
61200;SDS011;47065;52.898;6.992;2023-04-10T14:25:32;3.15;;;2.80;;
61200;SDS011;47065;52.898;6.992;2023-04-10T14:27:57;2.83;;;2.58;;
61200;SDS011;47065;52.898;6.992;2023-04-10T14:30:23;3.47;;;2.92;;
61200;SDS011;47065;52.898;6.992;2023-04-10T14:32:54;3.38;;;3.08;;
61200;SDS011;47065;52.898;6.992;2023-04-10T14:35:20;3.55;;;2.42;;
61200;SDS011;47065;52.898;6.992;2023-04-10T14:37:46;2.60;;;2.40;;
61200;SDS011;47065;52.898;6.992;2023-04-10T14:40:11;3.50;;;3.03;;
61200;SDS011;47065;52.898;6.992;2023-04-10T14:42:37;4.55;;;2.42;;
61200;SDS011;47065;52.898;6.992;2023-04-10T14:45:03;3.63;;;3.05;;
61200;SDS011;47065;52.898;6.992;2023-04-10T14:47:30;4.47;;;2.60;;
61200;SDS011;47065;52.898;6.992;2023-04-10T14:49:56;2.63;;;2.40;;
61200;SDS011;47065;52.898;6.992;2023-04-10T14:52:21;3.22;;;2.33;;
61200;SDS011;47065;52.898;6.992;2023-04-10T14:54:47;2.60;;;2.40;;
61200;SDS011;47065;52.898;6.992;2023-04-10T14:57:13;2.72;;;2.13;;
61200;SDS011;47065;52.898;6.992;2023-04-10T14:59:39;2.50;;;2.20;;
61200;SDS011;47065;52.898;6.992;2023-04-10T15:02:05;3.65;;;2.60;;
61200;SDS011;47065;52.898;6.992;2023-04-10T15:04:31;4.55;;;2.53;;
61200;SDS011;47065;52.898;6.992;2023-04-10T15:06:56;3.63;;;3.25;;
61200;SDS011;47065;52.898;6.992;2023-04-10T15:09:22;3.85;;;2.97;;
61200;SDS011;47065;52.898;6.992;2023-04-10T15:11:47;3.42;;;2.47;;
61200;SDS011;47065;52.898;6.992;2023-04-10T15:14:13;5.68;;;2.60;;
61200;SDS011;47065;52.898;6.992;2023-04-10T15:16:39;4.63;;;2.78;;
61200;SDS011;47065;52.898;6.992;2023-04-10T15:19:07;4.45;;;2.97;;
61200;SDS011;47065;52.898;6.992;2023-04-10T15:21:32;4.78;;;2.60;;
61200;SDS011;47065;52.898;6.992;2023-04-10T15:23:58;2.85;;;2.58;;
61200;SDS011;47065;52.898;6.992;2023-04-10T15:26:25;3.33;;;2.63;;
61200;SDS011;47065;52.898;6.992;2023-04-10T15:28:51;5.10;;;2.80;;
61200;SDS011;47065;52.898;6.992;2023-04-10T15:31:16;4.55;;;3.40;;
61200;SDS011;47065;52.898;6.992;2023-04-10T15:33:47;4.53;;;2.80;;
61200;SDS011;47065;52.898;6.992;2023-04-10T15:36:13;3.50;;;2.60;;
61200;SDS011;47065;52.898;6.992;2023-04-10T15:38:39;3.78;;;2.88;;
61200;SDS011;47065;52.898;6.992;2023-04-10T15:41:10;2.97;;;2.40;;
61200;SDS011;47065;52.898;6.992;2023-04-10T15:43:36;2.85;;;2.63;;
61200;SDS011;47065;52.898;6.992;2023-04-10T15:46:02;3.67;;;2.60;;
61200;SDS011;47065;52.898;6.992;2023-04-10T15:48:28;3.20;;;2.90;;
61200;SDS011;47065;52.898;6.992;2023-04-10T15:50:54;4.68;;;2.38;;
61200;SDS011;47065;52.898;6.992;2023-04-10T15:53:20;3.45;;;3.15;;
61200;SDS011;47065;52.898;6.992;2023-04-10T15:55:45;2.75;;;2.47;;
61200;SDS011;47065;52.898;6.992;2023-04-10T15:58:11;2.90;;;2.70;;
61200;SDS011;47065;52.898;6.992;2023-04-10T16:00:37;2.42;;;2.22;;
61200;SDS011;47065;52.898;6.992;2023-04-10T16:03:02;2.80;;;2.60;;
61200;SDS011;47065;52.898;6.992;2023-04-10T16:05:28;3.97;;;2.60;;
61200;SDS011;47065;52.898;6.992;2023-04-10T16:07:54;3.00;;;2.67;;
61200;SDS011;47065;52.898;6.992;2023-04-10T16:10:19;4.35;;;2.65;;
61200;SDS011;47065;52.898;6.992;2023-04-10T16:12:45;2.80;;;2.60;;
61200;SDS011;47065;52.898;6.992;2023-04-10T16:15:11;2.90;;;2.33;;
61200;SDS011;47065;52.898;6.992;2023-04-10T16:17:37;2.97;;;2.63;;
61200;SDS011;47065;52.898;6.992;2023-04-10T16:20:04;3.25;;;2.50;;
61200;SDS011;47065;52.898;6.992;2023-04-10T16:22:30;3.30;;;2.65;;
61200;SDS011;47065;52.898;6.992;2023-04-10T16:24:56;2.72;;;2.53;;
61200;SDS011;47065;52.898;6.992;2023-04-10T16:27:22;3.92;;;2.47;;
61200;SDS011;47065;52.898;6.992;2023-04-10T16:29:48;6.35;;;2.50;;
61200;SDS011;47065;52.898;6.992;2023-04-10T16:32:14;2.75;;;2.53;;
61200;SDS011;47065;52.898;6.992;2023-04-10T16:34:40;2.85;;;2.42;;
61200;SDS011;47065;52.898;6.992;2023-04-10T16:37:06;2.65;;;2.17;;
61200;SDS011;47065;52.898;6.992;2023-04-10T16:39:32;2.63;;;2.42;;
61200;SDS011;47065;52.898;6.992;2023-04-10T16:41:57;2.67;;;2.47;;
61200;SDS011;47065;52.898;6.992;2023-04-10T16:44:25;2.50;;;2.30;;
61200;SDS011;47065;52.898;6.992;2023-04-10T16:46:51;4.35;;;2.17;;
61200;SDS011;47065;52.898;6.992;2023-04-10T16:49:16;3.85;;;2.60;;
61200;SDS011;47065;52.898;6.992;2023-04-10T16:51:42;2.63;;;2.35;;
61200;SDS011;47065;52.898;6.992;2023-04-10T16:54:07;3.10;;;2.53;;
61200;SDS011;47065;52.898;6.992;2023-04-10T16:56:33;3.13;;;2.45;;
61200;SDS011;47065;52.898;6.992;2023-04-10T16:58:59;5.72;;;3.25;;
61200;SDS011;47065;52.898;6.992;2023-04-10T17:01:24;5.88;;;2.85;;
61200;SDS011;47065;52.898;6.992;2023-04-10T17:03:50;4.30;;;2.67;;
61200;SDS011;47065;52.898;6.992;2023-04-10T17:06:16;4.05;;;3.00;;
61200;SDS011;47065;52.898;6.992;2023-04-10T17:08:42;3.70;;;2.90;;
61200;SDS011;47065;52.898;6.992;2023-04-10T17:11:08;3.67;;;3.30;;
61200;SDS011;47065;52.898;6.992;2023-04-10T17:13:36;5.22;;;3.55;;
61200;SDS011;47065;52.898;6.992;2023-04-10T17:16:03;6.15;;;3.90;;
61200;SDS011;47065;52.898;6.992;2023-04-10T17:18:29;3.95;;;3.55;;
61200;SDS011;47065;52.898;6.992;2023-04-10T17:20:55;4.85;;;3.42;;
61200;SDS011;47065;52.898;6.992;2023-04-10T17:23:21;5.93;;;4.28;;
61200;SDS011;47065;52.898;6.992;2023-04-10T17:25:46;5.28;;;4.18;;
61200;SDS011;47065;52.898;6.992;2023-04-10T17:28:12;6.40;;;4.80;;
61200;SDS011;47065;52.898;6.992;2023-04-10T17:30:38;5.88;;;5.07;;
61200;SDS011;47065;52.898;6.992;2023-04-10T17:33:03;7.82;;;5.15;;
61200;SDS011;47065;52.898;6.992;2023-04-10T17:35:29;8.90;;;5.78;;
61200;SDS011;47065;52.898;6.992;2023-04-10T17:37:54;6.95;;;5.40;;
61200;SDS011;47065;52.898;6.992;2023-04-10T17:40:20;6.68;;;5.30;;
61200;SDS011;47065;52.898;6.992;2023-04-10T17:42:46;8.48;;;5.53;;
61200;SDS011;47065;52.898;6.992;2023-04-10T17:45:11;10.43;;;6.55;;
61200;SDS011;47065;52.898;6.992;2023-04-10T17:47:37;8.25;;;6.82;;
61200;SDS011;47065;52.898;6.992;2023-04-10T17:50:04;9.13;;;6.40;;
61200;SDS011;47065;52.898;6.992;2023-04-10T17:52:30;7.90;;;5.35;;
61200;SDS011;47065;52.898;6.992;2023-04-10T17:54:55;6.13;;;5.35;;
61200;SDS011;47065;52.898;6.992;2023-04-10T17:57:23;7.35;;;5.20;;
61200;SDS011;47065;52.898;6.992;2023-04-10T17:59:49;7.07;;;4.22;;
61200;SDS011;47065;52.898;6.992;2023-04-10T18:02:15;6.65;;;5.28;;
61200;SDS011;47065;52.898;6.992;2023-04-10T18:04:40;5.75;;;5.18;;
61200;SDS011;47065;52.898;6.992;2023-04-10T18:07:06;8.15;;;5.50;;
61200;SDS011;47065;52.898;6.992;2023-04-10T18:09:31;5.95;;;5.18;;
61200;SDS011;47065;52.898;6.992;2023-04-10T18:11:57;6.75;;;5.60;;
61200;SDS011;47065;52.898;6.992;2023-04-10T18:14:22;8.02;;;5.03;;
61200;SDS011;47065;52.898;6.992;2023-04-10T18:16:48;8.32;;;5.15;;
61200;SDS011;47065;52.898;6.992;2023-04-10T18:19:14;6.85;;;5.38;;
61200;SDS011;47065;52.898;6.992;2023-04-10T18:21:39;6.32;;;4.32;;
61200;SDS011;47065;52.898;6.992;2023-04-10T18:24:09;7.63;;;5.07;;
61200;SDS011;47065;52.898;6.992;2023-04-10T18:26:36;8.93;;;5.47;;
61200;SDS011;47065;52.898;6.992;2023-04-10T18:29:02;6.68;;;5.47;;
61200;SDS011;47065;52.898;6.992;2023-04-10T18:31:28;7.60;;;5.57;;
61200;SDS011;47065;52.898;6.992;2023-04-10T18:33:53;8.85;;;5.40;;
61200;SDS011;47065;52.898;6.992;2023-04-10T18:36:19;7.30;;;5.18;;
61200;SDS011;47065;52.898;6.992;2023-04-10T18:38:48;8.40;;;6.03;;
61200;SDS011;47065;52.898;6.992;2023-04-10T18:41:16;9.50;;;6.15;;
61200;SDS011;47065;52.898;6.992;2023-04-10T18:43:41;12.90;;;5.75;;
61200;SDS011;47065;52.898;6.992;2023-04-10T18:46:09;8.68;;;5.63;;
61200;SDS011;47065;52.898;6.992;2023-04-10T18:48:39;8.40;;;6.22;;
61200;SDS011;47065;52.898;6.992;2023-04-10T18:51:05;11.43;;;7.55;;
61200;SDS011;47065;52.898;6.992;2023-04-10T18:53:31;11.45;;;6.53;;
61200;SDS011;47065;52.898;6.992;2023-04-10T18:55:56;12.18;;;7.20;;
61200;SDS011;47065;52.898;6.992;2023-04-10T18:58:22;14.77;;;7.43;;
61200;SDS011;47065;52.898;6.992;2023-04-10T19:00:48;11.10;;;7.28;;
61200;SDS011;47065;52.898;6.992;2023-04-10T19:03:13;9.82;;;6.57;;
61200;SDS011;47065;52.898;6.992;2023-04-10T19:05:42;11.90;;;7.40;;
61200;SDS011;47065;52.898;6.992;2023-04-10T19:08:08;11.32;;;7.00;;
61200;SDS011;47065;52.898;6.992;2023-04-10T19:10:38;11.70;;;7.25;;
61200;SDS011;47065;52.898;6.992;2023-04-10T19:13:04;8.85;;;6.25;;
61200;SDS011;47065;52.898;6.992;2023-04-10T19:15:30;12.65;;;7.43;;
61200;SDS011;47065;52.898;6.992;2023-04-10T19:17:56;9.75;;;7.45;;
61200;SDS011;47065;52.898;6.992;2023-04-10T19:20:21;10.23;;;6.28;;
61200;SDS011;47065;52.898;6.992;2023-04-10T19:22:47;9.10;;;6.45;;
61200;SDS011;47065;52.898;6.992;2023-04-10T19:25:13;8.30;;;6.25;;
61200;SDS011;47065;52.898;6.992;2023-04-10T19:27:38;7.88;;;5.90;;
61200;SDS011;47065;52.898;6.992;2023-04-10T19:30:04;8.88;;;6.55;;
61200;SDS011;47065;52.898;6.992;2023-04-10T19:32:30;8.57;;;6.00;;
61200;SDS011;47065;52.898;6.992;2023-04-10T19:34:56;8.93;;;6.82;;
61200;SDS011;47065;52.898;6.992;2023-04-10T19:37:21;8.45;;;6.10;;
61200;SDS011;47065;52.898;6.992;2023-04-10T19:39:47;7.97;;;5.85;;
61200;SDS011;47065;52.898;6.992;2023-04-10T19:42:12;10.57;;;6.25;;
61200;SDS011;47065;52.898;6.992;2023-04-10T19:44:38;8.10;;;6.30;;
61200;SDS011;47065;52.898;6.992;2023-04-10T19:47:04;9.10;;;6.45;;
61200;SDS011;47065;52.898;6.992;2023-04-10T19:49:30;8.50;;;5.63;;
61200;SDS011;47065;52.898;6.992;2023-04-10T19:51:56;7.93;;;5.57;;
61200;SDS011;47065;52.898;6.992;2023-04-10T19:54:22;11.30;;;5.78;;
61200;SDS011;47065;52.898;6.992;2023-04-10T19:56:48;10.52;;;7.38;;
61200;SDS011;47065;52.898;6.992;2023-04-10T19:59:13;10.50;;;7.75;;
61200;SDS011;47065;52.898;6.992;2023-04-10T20:01:39;8.40;;;6.20;;
61200;SDS011;47065;52.898;6.992;2023-04-10T20:04:04;9.95;;;6.97;;
61200;SDS011;47065;52.898;6.992;2023-04-10T20:06:30;10.57;;;7.38;;
61200;SDS011;47065;52.898;6.992;2023-04-10T20:08:56;8.43;;;6.82;;
61200;SDS011;47065;52.898;6.992;2023-04-10T20:11:21;9.52;;;6.65;;
61200;SDS011;47065;52.898;6.992;2023-04-10T20:13:48;12.05;;;7.70;;
61200;SDS011;47065;52.898;6.992;2023-04-10T20:16:14;10.75;;;6.47;;
61200;SDS011;47065;52.898;6.992;2023-04-10T20:18:40;13.25;;;7.07;;
61200;SDS011;47065;52.898;6.992;2023-04-10T20:21:05;15.05;;;7.10;;
61200;SDS011;47065;52.898;6.992;2023-04-10T20:23:32;8.70;;;6.75;;
61200;SDS011;47065;52.898;6.992;2023-04-10T20:25:57;10.73;;;6.70;;
61200;SDS011;47065;52.898;6.992;2023-04-10T20:28:23;11.30;;;6.53;;
61200;SDS011;47065;52.898;6.992;2023-04-10T20:30:49;9.52;;;6.07;;
61200;SDS011;47065;52.898;6.992;2023-04-10T20:33:14;8.55;;;6.70;;
61200;SDS011;47065;52.898;6.992;2023-04-10T20:35:40;10.48;;;6.07;;
61200;SDS011;47065;52.898;6.992;2023-04-10T20:38:06;9.75;;;6.72;;
61200;SDS011;47065;52.898;6.992;2023-04-10T20:40:31;9.20;;;5.38;;
61200;SDS011;47065;52.898;6.992;2023-04-10T20:42:57;10.02;;;5.57;;
61200;SDS011;47065;52.898;6.992;2023-04-10T20:45:23;9.90;;;6.22;;
61200;SDS011;47065;52.898;6.992;2023-04-10T20:47:48;9.65;;;5.43;;
61200;SDS011;47065;52.898;6.992;2023-04-10T20:50:14;9.35;;;5.60;;
61200;SDS011;47065;52.898;6.992;2023-04-10T20:52:40;8.63;;;5.45;;
61200;SDS011;47065;52.898;6.992;2023-04-10T20:55:05;8.07;;;6.13;;
61200;SDS011;47065;52.898;6.992;2023-04-10T20:57:32;7.85;;;4.97;;
61200;SDS011;47065;52.898;6.992;2023-04-10T20:59:57;9.27;;;4.90;;
61200;SDS011;47065;52.898;6.992;2023-04-10T21:02:23;7.63;;;4.90;;
61200;SDS011;47065;52.898;6.992;2023-04-10T21:04:49;7.00;;;5.18;;
61200;SDS011;47065;52.898;6.992;2023-04-10T21:07:18;7.05;;;4.65;;
61200;SDS011;47065;52.898;6.992;2023-04-10T21:09:43;7.35;;;4.20;;
61200;SDS011;47065;52.898;6.992;2023-04-10T21:12:09;9.23;;;4.05;;
61200;SDS011;47065;52.898;6.992;2023-04-10T21:14:35;7.47;;;4.25;;
61200;SDS011;47065;52.898;6.992;2023-04-10T21:17:01;7.57;;;4.32;;
61200;SDS011;47065;52.898;6.992;2023-04-10T21:19:26;5.40;;;4.20;;
61200;SDS011;47065;52.898;6.992;2023-04-10T21:21:52;10.02;;;4.22;;
61200;SDS011;47065;52.898;6.992;2023-04-10T21:24:17;9.45;;;3.88;;
61200;SDS011;47065;52.898;6.992;2023-04-10T21:26:43;6.88;;;4.00;;
61200;SDS011;47065;52.898;6.992;2023-04-10T21:29:09;7.82;;;3.42;;
61200;SDS011;47065;52.898;6.992;2023-04-10T21:31:35;6.60;;;3.95;;
61200;SDS011;47065;52.898;6.992;2023-04-10T21:34:00;8.98;;;3.92;;
61200;SDS011;47065;52.898;6.992;2023-04-10T21:36:26;8.32;;;4.38;;
61200;SDS011;47065;52.898;6.992;2023-04-10T21:38:52;8.93;;;4.15;;
61200;SDS011;47065;52.898;6.992;2023-04-10T21:41:17;8.35;;;5.15;;
61200;SDS011;47065;52.898;6.992;2023-04-10T21:43:43;11.85;;;5.65;;
61200;SDS011;47065;52.898;6.992;2023-04-10T21:46:09;7.97;;;4.90;;
61200;SDS011;47065;52.898;6.992;2023-04-10T21:48:34;8.55;;;4.82;;
61200;SDS011;47065;52.898;6.992;2023-04-10T21:51:00;9.45;;;5.13;;
61200;SDS011;47065;52.898;6.992;2023-04-10T21:53:26;14.18;;;5.93;;
61200;SDS011;47065;52.898;6.992;2023-04-10T21:55:52;9.05;;;5.68;;
61200;SDS011;47065;52.898;6.992;2023-04-10T21:58:17;8.65;;;5.63;;
61200;SDS011;47065;52.898;6.992;2023-04-10T22:00:43;16.92;;;6.72;;
61200;SDS011;47065;52.898;6.992;2023-04-10T22:03:11;13.20;;;6.43;;
61200;SDS011;47065;52.898;6.992;2023-04-10T22:05:43;12.00;;;8.32;;
61200;SDS011;47065;52.898;6.992;2023-04-10T22:08:10;10.82;;;6.78;;
61200;SDS011;47065;52.898;6.992;2023-04-10T22:10:35;11.65;;;7.03;;
61200;SDS011;47065;52.898;6.992;2023-04-10T22:13:02;9.18;;;6.05;;
61200;SDS011;47065;52.898;6.992;2023-04-10T22:15:27;10.52;;;6.15;;
61200;SDS011;47065;52.898;6.992;2023-04-10T22:17:53;7.90;;;6.50;;
61200;SDS011;47065;52.898;6.992;2023-04-10T22:20:19;10.90;;;6.45;;
61200;SDS011;47065;52.898;6.992;2023-04-10T22:22:44;9.27;;;6.85;;
61200;SDS011;47065;52.898;6.992;2023-04-10T22:25:10;11.75;;;7.25;;
61200;SDS011;47065;52.898;6.992;2023-04-10T22:27:35;11.10;;;7.05;;
61200;SDS011;47065;52.898;6.992;2023-04-10T22:30:01;8.95;;;6.30;;
61200;SDS011;47065;52.898;6.992;2023-04-10T22:32:27;11.18;;;7.07;;
61200;SDS011;47065;52.898;6.992;2023-04-10T22:34:53;12.98;;;7.75;;
61200;SDS011;47065;52.898;6.992;2023-04-10T22:37:18;11.50;;;7.50;;
61200;SDS011;47065;52.898;6.992;2023-04-10T22:39:44;13.60;;;8.05;;
61200;SDS011;47065;52.898;6.992;2023-04-10T22:42:09;14.88;;;7.40;;
61200;SDS011;47065;52.898;6.992;2023-04-10T22:44:35;10.15;;;6.40;;
61200;SDS011;47065;52.898;6.992;2023-04-10T22:47:01;10.75;;;7.00;;
61200;SDS011;47065;52.898;6.992;2023-04-10T22:49:26;10.32;;;7.05;;
61200;SDS011;47065;52.898;6.992;2023-04-10T22:51:52;16.20;;;7.28;;
61200;SDS011;47065;52.898;6.992;2023-04-10T22:54:18;16.35;;;7.35;;
61200;SDS011;47065;52.898;6.992;2023-04-10T22:56:43;13.00;;;7.88;;
61200;SDS011;47065;52.898;6.992;2023-04-10T22:59:09;11.23;;;7.00;;
61200;SDS011;47065;52.898;6.992;2023-04-10T23:01:35;12.93;;;7.93;;
61200;SDS011;47065;52.898;6.992;2023-04-10T23:04:00;14.30;;;6.80;;
61200;SDS011;47065;52.898;6.992;2023-04-10T23:06:26;12.00;;;6.95;;
61200;SDS011;47065;52.898;6.992;2023-04-10T23:08:51;14.50;;;6.57;;
61200;SDS011;47065;52.898;6.992;2023-04-10T23:11:17;8.35;;;6.10;;
61200;SDS011;47065;52.898;6.992;2023-04-10T23:13:42;11.75;;;6.50;;
61200;SDS011;47065;52.898;6.992;2023-04-10T23:16:08;10.52;;;6.18;;
61200;SDS011;47065;52.898;6.992;2023-04-10T23:18:34;15.77;;;6.38;;
61200;SDS011;47065;52.898;6.992;2023-04-10T23:21:03;14.60;;;6.78;;
61200;SDS011;47065;52.898;6.992;2023-04-10T23:23:30;15.50;;;7.90;;
61200;SDS011;47065;52.898;6.992;2023-04-10T23:25:56;11.82;;;7.53;;
61200;SDS011;47065;52.898;6.992;2023-04-10T23:28:25;13.70;;;7.43;;
61200;SDS011;47065;52.898;6.992;2023-04-10T23:30:51;16.27;;;7.07;;
61200;SDS011;47065;52.898;6.992;2023-04-10T23:33:17;15.23;;;7.07;;
61200;SDS011;47065;52.898;6.992;2023-04-10T23:35:43;5.50;;;2.45;;
61200;SDS011;47065;52.898;6.992;2023-04-10T23:38:09;7.13;;;1.42;;
61200;SDS011;47065;52.898;6.992;2023-04-10T23:40:34;7.15;;;1.33;;
61200;SDS011;47065;52.898;6.992;2023-04-10T23:43:00;2.42;;;1.40;;
61200;SDS011;47065;52.898;6.992;2023-04-10T23:45:25;14.70;;;3.58;;
61200;SDS011;47065;52.898;6.992;2023-04-10T23:47:51;6.32;;;1.45;;
61200;SDS011;47065;52.898;6.992;2023-04-10T23:50:17;4.13;;;1.20;;
61200;SDS011;47065;52.898;6.992;2023-04-10T23:52:46;5.75;;;1.73;;
61200;SDS011;47065;52.898;6.992;2023-04-10T23:55:15;5.70;;;1.30;;
61200;SDS011;47065;52.898;6.992;2023-04-10T23:57:42;8.40;;;1.63;;
